createdAt,value
2023-05-21T00:01:17.783Z,101022.87
2023-05-21T00:03:47.585Z,101020.74
2023-05-21T00:06:16.711Z,101015.74
2023-05-21T00:08:44.753Z,101014.86
2023-05-21T00:11:12.765Z,101009.85
2023-05-21T00:13:40.824Z,101003.22
2023-05-21T00:16:09.038Z,101006.03
2023-05-21T00:18:37.154Z,100994.09
2023-05-21T00:21:05.338Z,101001.42
2023-05-21T00:23:34.077Z,100998.48
2023-05-21T00:26:02.602Z,100992.59
2023-05-21T00:28:30.624Z,100997.10
2023-05-21T00:30:58.583Z,100992.10
2023-05-21T00:33:27.845Z,101001.48
2023-05-21T00:35:56.542Z,100995.24
2023-05-21T00:38:25.001Z,100989.48
2023-05-21T00:40:53.011Z,100983.27
2023-05-21T00:43:21.003Z,100983.66
2023-05-21T00:45:49.827Z,100989.71
2023-05-21T00:48:17.879Z,100992.49
2023-05-21T00:50:46.253Z,100982.98
2023-05-21T00:53:16.655Z,100978.79
2023-05-21T00:55:44.650Z,100977.48
2023-05-21T00:58:12.745Z,100976.66
2023-05-21T01:00:42.018Z,100980.63
2023-05-21T01:03:10.552Z,100978.14
2023-05-21T01:05:38.719Z,100971.08
2023-05-21T01:08:07.037Z,100971.01
2023-05-21T01:10:35.079Z,100973.40
2023-05-21T01:13:03.086Z,100969.70
2023-05-21T01:15:31.143Z,100961.01
2023-05-21T01:17:59.268Z,100965.35
2023-05-21T01:20:27.235Z,100957.09
2023-05-21T01:22:56.206Z,100955.35
2023-05-21T01:25:24.754Z,100956.56
2023-05-21T01:27:53.209Z,100956.10
2023-05-21T01:30:21.930Z,100956.46
2023-05-21T01:32:51.237Z,100945.28
2023-05-21T01:35:22.704Z,100949.34
2023-05-21T01:37:53.588Z,100951.36
2023-05-21T01:40:25.712Z,100958.33
2023-05-21T01:42:53.724Z,100961.20
2023-05-21T01:45:21.749Z,100957.51
2023-05-21T01:47:50.943Z,100954.99
2023-05-21T01:50:19.874Z,100958.62
2023-05-21T01:52:55.002Z,100958.98
2023-05-21T01:55:25.921Z,100958.52
2023-05-21T01:57:57.098Z,100953.52
2023-05-21T02:00:25.952Z,100957.97
2023-05-21T02:02:54.208Z,100959.99
2023-05-21T02:05:22.214Z,100962.05
2023-05-21T02:07:56.206Z,100955.48
2023-05-21T02:10:24.262Z,100951.39
2023-05-21T02:12:52.255Z,100950.48
2023-05-21T02:15:20.630Z,100960.25
2023-05-21T02:17:48.685Z,100955.35
2023-05-21T02:20:16.949Z,100960.25
2023-05-21T02:22:46.524Z,100956.95
2023-05-21T02:25:15.677Z,100951.20
2023-05-21T02:27:44.153Z,100945.48
2023-05-21T02:30:12.976Z,100950.80
2023-05-21T02:32:43.911Z,100944.73
2023-05-21T02:35:13.988Z,100937.30
2023-05-21T02:37:42.034Z,100936.45
2023-05-21T02:40:11.291Z,100943.41
2023-05-21T02:42:42.778Z,100932.30
2023-05-21T02:45:11.775Z,100940.47
2023-05-21T02:47:40.153Z,100933.87
2023-05-21T02:50:09.239Z,100939.59
2023-05-21T02:52:37.277Z,100934.72
2023-05-21T02:55:05.537Z,100933.87
2023-05-21T02:57:33.563Z,100933.51
2023-05-21T03:00:01.530Z,100931.84
2023-05-21T03:02:29.626Z,100930.89
2023-05-21T03:04:57.686Z,100935.34
2023-05-21T03:07:25.897Z,100933.67
2023-05-21T03:09:53.984Z,100933.61
2023-05-21T03:12:21.973Z,100932.76
2023-05-21T03:14:52.589Z,100933.87
2023-05-21T03:17:21.798Z,100930.53
2023-05-21T03:19:50.451Z,100930.08
2023-05-21T03:22:18.428Z,100936.16
2023-05-21T03:24:46.621Z,100943.94
2023-05-21T03:27:14.643Z,100939.43
2023-05-21T03:29:44.570Z,100937.27
2023-05-21T03:32:12.812Z,100938.51
2023-05-21T03:34:40.891Z,100940.05
2023-05-21T03:37:08.857Z,100939.69
2023-05-21T03:39:36.824Z,100944.23
2023-05-21T03:42:04.936Z,100943.38
2023-05-21T03:44:33.808Z,100937.27
2023-05-21T03:47:01.781Z,100938.51
2023-05-21T03:49:29.834Z,100935.50
2023-05-21T03:51:57.856Z,100937.20
2023-05-21T03:54:25.931Z,100949.40
2023-05-21T03:56:53.963Z,100949.86
2023-05-21T03:59:21.988Z,100947.83
2023-05-21T04:01:50.002Z,100944.49
2023-05-21T04:04:17.981Z,100952.37
2023-05-21T04:06:46.041Z,100945.90
2023-05-21T04:09:14.253Z,100947.53
2023-05-21T04:11:42.400Z,100950.09
2023-05-21T04:14:10.389Z,100940.63
2023-05-21T04:16:40.085Z,100943.52
2023-05-21T04:19:08.207Z,100953.29
2023-05-21T04:21:36.267Z,100952.11
2023-05-21T04:24:05.201Z,100956.16
2023-05-21T04:26:35.432Z,100958.20
2023-05-21T04:29:05.160Z,100960.71
2023-05-21T04:31:36.043Z,100963.20
2023-05-21T04:34:04.114Z,100963.20
2023-05-21T04:36:32.130Z,100959.86
2023-05-21T04:39:00.158Z,100970.98
2023-05-21T04:41:28.172Z,100973.76
2023-05-21T04:43:56.445Z,100966.83
2023-05-21T04:46:27.317Z,100970.98
2023-05-21T04:48:58.144Z,100970.62
2023-05-21T04:51:26.276Z,100978.86
2023-05-21T04:53:55.197Z,100979.35
2023-05-21T04:56:29.329Z,100979.77
2023-05-21T04:58:57.325Z,100979.77
2023-05-21T05:01:26.765Z,100979.45
2023-05-21T05:03:55.031Z,100983.60
2023-05-21T05:06:23.684Z,100986.94
2023-05-21T05:08:51.869Z,100981.18
2023-05-21T05:11:19.867Z,100990.27
2023-05-21T05:13:47.950Z,100992.03
2023-05-21T05:16:18.878Z,100996.58
2023-05-21T05:18:47.185Z,100991.67
2023-05-21T05:21:15.225Z,100995.92
2023-05-21T05:23:43.217Z,100994.36
2023-05-21T05:26:12.389Z,100994.45
2023-05-21T05:28:40.408Z,100999.45
2023-05-21T05:31:08.430Z,100999.95
2023-05-21T05:33:36.494Z,100997.49
2023-05-21T05:36:04.583Z,100996.77
2023-05-21T05:38:32.560Z,100993.15
2023-05-21T05:41:00.557Z,100992.43
2023-05-21T05:43:28.602Z,100994.55
2023-05-21T05:45:56.790Z,100990.56
2023-05-21T05:48:24.859Z,100997.73
2023-05-21T05:50:56.017Z,100999.85
2023-05-21T05:53:24.025Z,100998.28
2023-05-21T05:55:52.096Z,100991.38
2023-05-21T05:58:20.083Z,100993.15
2023-05-21T06:00:48.153Z,100991.55
2023-05-21T06:03:16.365Z,101003.15
2023-05-21T06:05:44.372Z,101001.71
2023-05-21T06:08:12.576Z,100999.26
2023-05-21T06:10:40.757Z,100998.51
2023-05-21T06:13:08.871Z,100999.91
2023-05-21T06:15:37.807Z,101005.73
2023-05-21T06:18:06.163Z,101002.04
2023-05-21T06:20:34.290Z,101002.56
2023-05-21T06:23:02.603Z,101003.48
2023-05-21T06:25:30.783Z,101007.30
2023-05-21T06:27:59.035Z,101013.13
2023-05-21T06:30:27.172Z,100998.84
2023-05-21T06:32:55.396Z,101007.99
2023-05-21T06:35:23.560Z,101001.98
2023-05-21T06:37:51.689Z,100999.98
2023-05-21T06:40:19.866Z,101001.71
2023-05-21T06:42:48.029Z,101002.66
2023-05-21T06:45:16.289Z,100998.64
2023-05-21T06:47:44.443Z,101001.22
2023-05-21T06:50:12.634Z,100996.35
2023-05-21T06:52:40.835Z,101000.17
2023-05-21T06:55:09.583Z,101002.30
2023-05-21T06:57:39.660Z,100990.47
2023-05-21T07:00:10.476Z,101003.31
2023-05-21T07:02:38.705Z,101005.90
2023-05-21T07:05:07.338Z,101013.48
2023-05-21T07:07:36.351Z,101003.77
2023-05-21T07:10:04.698Z,101008.12
2023-05-21T07:12:32.896Z,101006.65
2023-05-21T07:15:01.193Z,101008.05
2023-05-21T07:17:29.348Z,101011.91
2023-05-21T07:19:57.955Z,101007.50
2023-05-21T07:22:28.320Z,101007.70
2023-05-21T07:24:57.209Z,101009.04
2023-05-21T07:27:26.266Z,101003.45
2023-05-21T07:29:54.666Z,101005.02
2023-05-21T07:32:22.862Z,101005.63
2023-05-21T07:34:52.164Z,101003.48
2023-05-21T07:37:22.540Z,101007.92
2023-05-21T07:39:50.720Z,101003.67
2023-05-21T07:42:18.899Z,101001.45
2023-05-21T07:44:47.116Z,101003.67
2023-05-21T07:47:15.212Z,101005.54
2023-05-21T07:49:43.424Z,101004.95
2023-05-21T07:52:11.746Z,100998.05
2023-05-21T07:54:39.965Z,100995.11
2023-05-21T07:57:08.178Z,100991.51
2023-05-21T07:59:36.469Z,100991.19
2023-05-21T08:02:04.561Z,100994.29
2023-05-21T08:04:33.013Z,100997.40
2023-05-21T08:07:01.407Z,100999.13
2023-05-21T08:09:29.786Z,100998.84
2023-05-21T08:11:57.900Z,100997.62
2023-05-21T08:14:25.956Z,100994.78
2023-05-21T08:16:54.308Z,100992.36
2023-05-21T08:19:22.546Z,100994.88
2023-05-21T08:21:52.870Z,100993.67
2023-05-21T08:24:21.454Z,100985.79
2023-05-21T08:26:51.094Z,100991.67
2023-05-21T08:29:19.238Z,100994.59
2023-05-21T08:31:47.830Z,100990.89
2023-05-21T08:34:16.076Z,100993.80
2023-05-21T08:36:48.440Z,100988.86
2023-05-21T08:39:16.694Z,100983.50
2023-05-21T08:41:50.853Z,100990.14
2023-05-21T08:44:21.717Z,101000.11
2023-05-21T08:46:51.584Z,100985.59
2023-05-21T08:49:20.362Z,100996.74
2023-05-21T08:51:48.602Z,101001.29
2023-05-21T08:54:17.087Z,100999.62
2023-05-21T08:56:48.366Z,100997.07
2023-05-21T08:59:17.179Z,100998.67
2023-05-21T09:01:45.906Z,100996.16
2023-05-21T09:04:20.897Z,100998.25
2023-05-21T09:06:49.771Z,101006.09
2023-05-21T09:09:34.890Z,101001.88
2023-05-21T09:12:03.173Z,100993.12
2023-05-21T09:14:31.316Z,101003.87
2023-05-21T09:16:59.686Z,100994.32
2023-05-21T09:19:28.219Z,101004.27
2023-05-21T09:21:56.388Z,100997.62
2023-05-21T09:24:24.616Z,101003.48
2023-05-21T09:26:52.867Z,100997.23
2023-05-21T09:29:21.097Z,100995.99
2023-05-21T09:31:49.435Z,100992.13
2023-05-21T09:34:17.738Z,100995.40
2023-05-21T09:36:45.993Z,101003.25
2023-05-21T09:39:17.762Z,101002.79
2023-05-21T09:41:46.232Z,101007.40
2023-05-21T09:44:15.024Z,101007.53
2023-05-21T09:46:43.241Z,101014.98
2023-05-21T09:49:27.758Z,101004.98
2023-05-21T09:51:59.631Z,101014.01
2023-05-21T09:54:32.210Z,101011.85
2023-05-21T09:57:06.367Z,101012.70
2023-05-21T09:59:40.958Z,101013.19
2023-05-21T10:02:23.236Z,101013.26
2023-05-21T10:04:52.908Z,101016.23
2023-05-21T10:07:28.409Z,101014.98
2023-05-21T10:09:59.850Z,101008.35
2023-05-21T10:12:28.909Z,101008.38
2023-05-21T10:15:02.879Z,101015.51
2023-05-21T10:17:31.745Z,101016.79
2023-05-21T10:19:59.912Z,101013.88
2023-05-21T10:22:28.191Z,101012.21
2023-05-21T10:24:56.379Z,101013.45
2023-05-21T10:27:24.616Z,101017.96
2023-05-21T10:29:52.837Z,101008.74
2023-05-21T10:32:21.136Z,101015.31
2023-05-21T10:34:49.377Z,101003.97
2023-05-21T10:37:17.673Z,101003.09
2023-05-21T10:39:47.419Z,100996.45
2023-05-21T10:42:33.961Z,101006.78
2023-05-21T10:45:38.146Z,101005.21
2023-05-21T10:48:38.441Z,101009.79
2023-05-21T10:51:24.413Z,100999.03
2023-05-21T10:54:17.839Z,101002.59
2023-05-21T10:56:50.601Z,100998.77
2023-05-21T10:59:36.633Z,101005.70
2023-05-21T11:02:04.846Z,100997.73
2023-05-21T11:04:33.737Z,100999.69
2023-05-21T11:07:01.883Z,101000.05
2023-05-21T11:09:30.068Z,100997.04
2023-05-21T11:12:02.272Z,100987.75
2023-05-21T11:14:34.991Z,100990.56
2023-05-21T11:17:04.845Z,100991.22
2023-05-21T11:19:43.424Z,100992.27
2023-05-21T11:22:21.373Z,100989.98
2023-05-21T11:24:51.394Z,100981.90
2023-05-21T11:27:32.285Z,100995.50
2023-05-21T11:30:00.598Z,100983.77
2023-05-21T11:32:28.798Z,100991.91
2023-05-21T11:34:58.065Z,100984.02
2023-05-21T11:37:29.274Z,100986.05
2023-05-21T11:39:58.591Z,100979.74
2023-05-21T11:42:36.532Z,100980.49
2023-05-21T11:45:05.636Z,100980.36
2023-05-21T11:47:34.025Z,100974.09
2023-05-21T11:50:03.224Z,100975.49
2023-05-21T11:52:32.170Z,100969.37
2023-05-21T11:55:01.191Z,100971.27
2023-05-21T11:57:33.318Z,100958.69
2023-05-21T12:00:02.677Z,100967.41
2023-05-21T12:02:34.035Z,100970.36
2023-05-21T12:05:02.210Z,100969.60
2023-05-21T12:07:33.291Z,100964.80
2023-05-21T12:10:01.626Z,100965.52
2023-05-21T12:12:41.771Z,100970.23
2023-05-21T12:15:19.371Z,100976.27
2023-05-21T12:17:50.738Z,100973.04
2023-05-21T12:20:18.871Z,100970.06
2023-05-21T12:22:47.082Z,100969.60
2023-05-21T12:25:15.198Z,100972.91
2023-05-21T12:27:43.548Z,100968.27
2023-05-21T12:30:12.489Z,100969.80
2023-05-21T12:32:45.546Z,100967.38
2023-05-21T12:35:24.652Z,100971.14
2023-05-21T12:37:53.547Z,100966.73
2023-05-21T12:40:21.776Z,100957.60
2023-05-21T12:42:49.924Z,100958.85
2023-05-21T12:45:19.929Z,100960.35
2023-05-21T12:47:50.491Z,100962.18
2023-05-21T12:50:20.200Z,100961.92
2023-05-21T12:52:48.436Z,100957.51
2023-05-21T12:55:16.644Z,100956.88
2023-05-21T12:57:45.317Z,100961.59
2023-05-21T13:00:14.045Z,100956.40
2023-05-21T13:02:44.290Z,100950.34
2023-05-21T13:05:18.895Z,100963.42
2023-05-21T13:07:48.468Z,100967.31
2023-05-21T13:10:17.730Z,100966.20
2023-05-21T13:12:46.668Z,100965.68
2023-05-21T13:15:15.473Z,100964.30
2023-05-21T13:17:43.648Z,100956.27
2023-05-21T13:20:16.541Z,100959.93
2023-05-21T13:22:47.982Z,100955.55
2023-05-21T13:25:17.760Z,100951.23
2023-05-21T13:27:46.082Z,100952.18
2023-05-21T13:30:14.312Z,100954.14
2023-05-21T13:32:43.198Z,100947.47
2023-05-21T13:35:12.296Z,100950.64
2023-05-21T13:37:41.074Z,100945.84
2023-05-21T13:40:12.413Z,100945.84
2023-05-21T13:42:40.758Z,100942.04
2023-05-21T13:45:10.621Z,100947.24
2023-05-21T13:47:40.396Z,100946.88
2023-05-21T13:50:09.884Z,100949.04
2023-05-21T13:52:39.065Z,100948.45
2023-05-21T13:55:07.975Z,100946.42
2023-05-21T13:57:36.039Z,100945.93
2023-05-21T14:00:05.458Z,100940.41
2023-05-21T14:02:33.665Z,100941.95
2023-05-21T14:05:02.161Z,100953.95
2023-05-21T14:07:30.400Z,100941.87
2023-05-21T14:09:58.648Z,100950.12
2023-05-21T14:12:28.095Z,100946.69
2023-05-21T14:14:56.969Z,100940.84
2023-05-21T14:17:25.228Z,100936.68
2023-05-21T14:19:53.410Z,100937.98
2023-05-21T14:22:21.599Z,100934.33
2023-05-21T14:24:50.155Z,100928.15
2023-05-21T14:27:18.376Z,100931.16
2023-05-21T14:29:46.543Z,100928.67
2023-05-21T14:32:14.784Z,100929.95
2023-05-21T14:34:43.255Z,100929.20
2023-05-21T14:37:11.436Z,100934.72
2023-05-21T14:39:39.703Z,100930.27
2023-05-21T14:42:08.000Z,100929.20
2023-05-21T14:44:36.212Z,100924.68
2023-05-21T14:47:04.406Z,100927.33
2023-05-21T14:49:32.549Z,100923.18
2023-05-21T14:52:00.637Z,100924.87
2023-05-21T14:54:28.966Z,100927.46
2023-05-21T14:56:57.309Z,100920.53
2023-05-21T14:59:25.445Z,100922.69
2023-05-21T15:01:53.577Z,100924.09
2023-05-21T15:04:22.023Z,100921.21
2023-05-21T15:06:50.257Z,100916.64
2023-05-21T15:09:18.427Z,100925.40
2023-05-21T15:11:47.563Z,100908.34
2023-05-21T15:14:15.645Z,100923.41
2023-05-21T15:16:43.900Z,100922.98
2023-05-21T15:19:13.332Z,100917.98
2023-05-21T15:21:41.638Z,100923.34
2023-05-21T15:24:09.919Z,100926.28
2023-05-21T15:26:38.002Z,100927.95
2023-05-21T15:29:06.176Z,100928.37
2023-05-21T15:31:34.342Z,100922.16
2023-05-21T15:34:02.732Z,100924.22
2023-05-21T15:36:31.065Z,100920.13
2023-05-21T15:38:59.277Z,100923.54
2023-05-21T15:41:27.493Z,100916.08
2023-05-21T15:43:55.801Z,100915.72
2023-05-21T15:46:24.151Z,100914.05
2023-05-21T15:48:52.341Z,100919.48
2023-05-21T15:51:20.576Z,100915.27
2023-05-21T15:53:48.685Z,100907.35
2023-05-21T15:56:17.045Z,100906.93
2023-05-21T15:58:45.391Z,100910.26
2023-05-21T16:01:13.711Z,100911.11
2023-05-21T16:03:42.084Z,100906.11
2023-05-21T16:06:11.789Z,100899.87
2023-05-21T16:08:40.126Z,100903.59
2023-05-21T16:11:08.252Z,100905.72
2023-05-21T16:13:36.484Z,100909.09
2023-05-21T16:16:04.776Z,100905.29
2023-05-21T16:18:33.089Z,100909.51
2023-05-21T16:21:01.542Z,100900.75
2023-05-21T16:23:29.739Z,100905.75
2023-05-21T16:25:57.838Z,100910.39
2023-05-21T16:28:27.455Z,100909.61
2023-05-21T16:30:55.678Z,100898.39
2023-05-21T16:33:23.842Z,100908.82
2023-05-21T16:35:52.096Z,100905.98
2023-05-21T16:38:20.319Z,100900.19
2023-05-21T16:40:48.866Z,100899.38
2023-05-21T16:43:17.732Z,100900.23
2023-05-21T16:45:47.118Z,100901.47
2023-05-21T16:48:15.660Z,100904.41
2023-05-21T16:50:44.369Z,100909.80
2023-05-21T16:53:12.997Z,100900.65
2023-05-21T16:55:41.718Z,100906.93
2023-05-21T16:58:10.904Z,100919.02
2023-05-21T17:00:39.116Z,100917.84
2023-05-21T17:03:08.101Z,100915.39
2023-05-21T17:05:37.235Z,100915.07
2023-05-21T17:08:06.052Z,100918.41
2023-05-21T17:10:34.559Z,100915.91
2023-05-21T17:13:17.417Z,100914.71
2023-05-21T17:15:49.794Z,100913.95
2023-05-21T17:18:18.226Z,100909.87
2023-05-21T17:20:46.768Z,100916.57
2023-05-21T17:23:15.311Z,100912.84
2023-05-21T17:25:43.689Z,100919.94
2023-05-21T17:28:12.715Z,100923.73
2023-05-21T17:30:41.232Z,100922.55
2023-05-21T17:33:11.618Z,100929.65
2023-05-21T17:35:40.318Z,100930.53
2023-05-21T17:38:08.741Z,100930.96
2023-05-21T17:40:37.113Z,100935.17
2023-05-21T17:43:06.305Z,100940.18
2023-05-21T17:45:34.723Z,100936.45
2023-05-21T17:48:03.181Z,100936.09
2023-05-21T17:50:31.768Z,100934.03
2023-05-21T17:53:00.611Z,100933.21
2023-05-21T17:55:29.008Z,100931.16
2023-05-21T17:57:57.498Z,100934.95
2023-05-21T18:00:25.857Z,100927.52
2023-05-21T18:02:54.248Z,100923.38
2023-05-21T18:05:22.578Z,100932.56
2023-05-21T18:07:50.814Z,100935.11
2023-05-21T18:10:19.302Z,100934.33
2023-05-21T18:12:48.116Z,100935.24
2023-05-21T18:15:17.078Z,100932.37
2023-05-21T18:17:45.533Z,100930.73
2023-05-21T18:20:14.344Z,100929.98
2023-05-21T18:22:42.494Z,100929.16
2023-05-21T18:25:10.972Z,100933.80
2023-05-21T18:27:39.233Z,100930.53
2023-05-21T18:30:08.459Z,100928.51
2023-05-21T18:32:39.735Z,100930.60
2023-05-21T18:35:13.691Z,100926.48
2023-05-21T18:37:45.720Z,100932.37
2023-05-21T18:40:14.783Z,100929.06
2023-05-21T18:42:42.962Z,100934.52
2023-05-21T18:45:11.955Z,100924.59
2023-05-21T18:47:41.766Z,100930.83
2023-05-21T18:50:14.361Z,100928.41
2023-05-21T18:52:42.892Z,100927.20
2023-05-21T18:55:11.501Z,100929.72
2023-05-21T18:57:40.465Z,100938.45
2023-05-21T19:00:11.102Z,100941.39
2023-05-21T19:02:39.574Z,100943.09
2023-05-21T19:05:08.634Z,100938.94
2023-05-21T19:07:37.815Z,100935.24
2023-05-21T19:10:06.324Z,100941.48
2023-05-21T19:12:35.461Z,100945.67
2023-05-21T19:15:04.493Z,100954.83
2023-05-21T19:17:32.887Z,100955.28
2023-05-21T19:20:01.243Z,100954.50
2023-05-21T19:22:29.693Z,100949.50
2023-05-21T19:24:57.973Z,100956.59
2023-05-21T19:27:26.275Z,100961.53
2023-05-21T19:29:54.381Z,100968.59
2023-05-21T19:32:23.130Z,100967.35
2023-05-21T19:34:54.522Z,100979.35
2023-05-21T19:37:22.973Z,100977.68
2023-05-21T19:39:51.671Z,100984.32
2023-05-21T19:42:21.371Z,100989.29
2023-05-21T19:44:49.622Z,100990.53
2023-05-21T19:47:17.807Z,100998.80
2023-05-21T19:49:46.071Z,100981.84
2023-05-21T19:52:14.310Z,100995.92
2023-05-21T19:54:42.616Z,101002.53
2023-05-21T19:57:12.487Z,101009.59
2023-05-21T19:59:40.975Z,101002.10
2023-05-21T20:02:11.770Z,101020.77
2023-05-21T20:04:40.031Z,101014.95
2023-05-21T20:07:08.513Z,101018.26
2023-05-21T20:09:36.887Z,101015.74
2023-05-21T20:12:05.315Z,101016.55
2023-05-21T20:14:34.931Z,101010.37
2023-05-21T20:17:03.285Z,101015.74
2023-05-21T20:19:31.926Z,101026.07
2023-05-21T20:22:00.822Z,101025.65
2023-05-21T20:24:29.038Z,101028.95
2023-05-21T20:26:57.136Z,101026.01
2023-05-21T20:29:25.303Z,101030.98
2023-05-21T20:31:53.501Z,101030.13
2023-05-21T20:34:22.067Z,101025.12
2023-05-21T20:36:50.357Z,101028.42
2023-05-21T20:39:19.367Z,101034.21
2023-05-21T20:41:48.500Z,101025.48
2023-05-21T20:44:16.860Z,101027.12
2023-05-21T20:46:45.242Z,101029.18
2023-05-21T20:49:13.563Z,101030.42
2023-05-21T20:51:42.680Z,101022.54
2023-05-21T20:54:12.160Z,101031.20
2023-05-21T20:56:43.108Z,101026.66
2023-05-21T20:59:11.614Z,101031.20
2023-05-21T21:01:44.999Z,101034.90
2023-05-21T21:04:13.256Z,101034.05
2023-05-21T21:06:41.768Z,101039.41
2023-05-21T21:09:10.225Z,101043.11
2023-05-21T21:11:38.477Z,101036.05
2023-05-21T21:14:06.904Z,101038.10
2023-05-21T21:16:35.314Z,101038.04
2023-05-21T21:19:03.588Z,101042.16
2023-05-21T21:21:32.713Z,101032.22
2023-05-21T21:24:00.956Z,101043.34
2023-05-21T21:26:29.250Z,101043.76
2023-05-21T21:28:57.795Z,101045.40
2023-05-21T21:31:26.276Z,101049.55
2023-05-21T21:33:54.690Z,101052.00
2023-05-21T21:36:22.891Z,101056.51
2023-05-21T21:38:51.114Z,101054.42
2023-05-21T21:41:20.903Z,101053.96
2023-05-21T21:43:49.399Z,101054.38
2023-05-21T21:46:17.754Z,101051.02
2023-05-21T21:48:46.220Z,101054.71
2023-05-21T21:51:15.463Z,101061.74
2023-05-21T21:53:43.713Z,101053.86
2023-05-21T21:56:12.422Z,101051.38
2023-05-21T21:58:40.518Z,101044.35
2023-05-21T22:01:08.685Z,101042.65
2023-05-21T22:03:37.338Z,101047.20
2023-05-21T22:06:05.593Z,101044.25
2023-05-21T22:08:33.798Z,101044.22
2023-05-21T22:11:03.267Z,101047.55
2023-05-21T22:13:31.573Z,101045.00
2023-05-21T22:15:59.800Z,101049.94
2023-05-21T22:18:39.717Z,101054.02
2023-05-21T22:21:11.000Z,101053.99
2023-05-21T22:23:39.523Z,101053.96
2023-05-21T22:26:08.262Z,101046.90
2023-05-21T22:28:36.341Z,101059.68
2023-05-21T22:31:04.474Z,101049.74
2023-05-21T22:33:32.741Z,101055.47
2023-05-21T22:36:00.702Z,101055.04
2023-05-21T22:38:29.005Z,101065.30
2023-05-21T22:40:57.191Z,101057.03
2023-05-21T22:43:26.941Z,101064.00
2023-05-21T22:45:54.955Z,101061.48
2023-05-21T22:48:23.432Z,101065.57
2023-05-21T22:50:51.636Z,101070.90
2023-05-21T22:53:19.681Z,101065.08
2023-05-21T22:55:47.736Z,101056.74
2023-05-21T22:58:15.856Z,101058.77
2023-05-21T23:00:44.364Z,101066.09
2023-05-21T23:03:12.804Z,101068.09
2023-05-21T23:05:40.947Z,101067.66
2023-05-21T23:08:09.115Z,101068.84
2023-05-21T23:10:37.449Z,101070.87
2023-05-21T23:13:05.762Z,101074.52
2023-05-21T23:15:33.833Z,101065.41
2023-05-21T23:18:02.700Z,101074.85
2023-05-21T23:20:30.656Z,101075.70
2023-05-21T23:22:58.776Z,101070.31
2023-05-21T23:25:26.716Z,101075.64
2023-05-21T23:27:54.851Z,101072.76
2023-05-21T23:30:22.967Z,101068.55
2023-05-21T23:32:52.083Z,101073.91
2023-05-21T23:35:20.714Z,101076.72
2023-05-21T23:37:49.093Z,101069.30
2023-05-21T23:40:17.257Z,101078.29
2023-05-21T23:42:45.245Z,101072.86
2023-05-21T23:45:13.299Z,101073.19
2023-05-21T23:47:41.357Z,101073.16
2023-05-21T23:50:09.901Z,101078.41
2023-05-21T23:52:37.925Z,101082.47
2023-05-21T23:55:06.344Z,101080.38
2023-05-21T23:57:34.338Z,101077.86
